Time;durP1;ratioP1;P1;durP2;ratioP2;P2;SDS_P1;SDS_P2;PMS_P1;PMS_P2;Temp;Humidity;BMP_temperature;BMP_pressure;BME280_temperature;BME280_humidity;BME280_pressure;Samples;Min_cycle;Max_cycle;Signal;HPM_P1;HPM_P2
2022/03/05 00:01:34;;;;;;;5.97;3.00;;;;;;;19.14;40.13;101919.69;5032114;28;20022;-61
2022/03/05 00:04:02;;;;;;;5.27;3.00;;;;;;;19.12;40.01;101923.38;5032991;28;20328;-62
2022/03/05 00:06:27;;;;;;;6.95;3.60;;;;;;;19.10;39.87;101923.47;5032716;28;20631;-62
2022/03/05 00:08:52;;;;;;;6.22;3.67;;;;;;;19.10;40.04;101923.47;5031935;28;20033;-62
2022/03/05 00:11:17;;;;;;;6.47;3.50;;;;;;;19.07;39.72;101921.03;5033172;28;20036;-62
2022/03/05 00:13:43;;;;;;;5.67;3.63;;;;;;;19.09;39.77;101932.38;5032612;28;20282;-62
2022/03/05 00:16:08;;;;;;;5.82;3.50;;;;;;;19.06;39.80;101927.28;5032183;28;20335;-62
2022/03/05 00:18:33;;;;;;;6.07;3.55;;;;;;;19.07;39.63;101936.06;5032704;28;20032;-63
2022/03/05 00:20:58;;;;;;;5.43;3.70;;;;;;;19.05;39.87;101930.88;5032814;28;20480;-62
2022/03/05 00:23:26;;;;;;;6.50;3.80;;;;;;;19.02;39.73;101928.44;5032109;28;20048;-62
2022/03/05 00:25:52;;;;;;;5.90;3.60;;;;;;;19.03;39.80;101938.06;5032930;28;20440;-62
2022/03/05 00:28:18;;;;;;;6.83;3.60;;;;;;;19.03;39.53;101936.25;5032961;28;20463;-62
2022/03/05 00:30:43;;;;;;;5.82;3.65;;;;;;;19.00;39.77;101933.00;5032132;28;20285;-62
2022/03/05 00:33:08;;;;;;;6.38;3.90;;;;;;;18.95;39.75;101933.31;5032919;28;20068;-63
2022/03/05 00:35:37;;;;;;;6.75;4.18;;;;;;;18.95;39.63;101938.59;5031684;28;20045;-62
2022/03/05 00:38:02;;;;;;;5.95;3.60;;;;;;;18.93;39.64;101939.63;5032622;28;20028;-62
2022/03/05 00:40:28;;;;;;;7.53;4.28;;;;;;;18.91;39.43;101933.59;5032524;28;20104;-63
2022/03/05 00:42:53;;;;;;;8.38;4.07;;;;;;;18.90;39.67;101931.91;5031975;28;20029;-62
2022/03/05 00:45:18;;;;;;;6.43;4.00;;;;;;;18.87;39.58;101929.47;5032660;28;20037;-61
2022/03/05 00:47:44;;;;;;;7.57;4.10;;;;;;;18.87;39.79;101934.75;5032528;28;20082;-61
2022/03/05 00:50:09;;;;;;;6.80;4.05;;;;;;;18.81;39.86;101926.25;5031950;28;20028;-61
2022/03/05 00:52:36;;;;;;;6.38;3.90;;;;;;;18.80;39.83;101921.94;5032147;28;20048;-62
2022/03/05 00:55:02;;;;;;;6.13;3.70;;;;;;;18.77;39.59;101924.78;5032689;28;20071;-62
2022/03/05 00:57:28;;;;;;;6.93;4.35;;;;;;;18.76;39.66;101925.72;5031618;28;20526;-62
2022/03/05 00:59:53;;;;;;;6.40;3.90;;;;;;;18.74;39.78;101927.63;5034148;28;20022;-62
2022/03/05 01:02:18;;;;;;;7.85;4.28;;;;;;;18.70;39.92;101923.50;5036507;28;20143;-63
2022/03/05 01:04:43;;;;;;;6.50;4.03;;;;;;;18.68;39.81;101926.25;5035325;28;20029;-62
2022/03/05 01:07:09;;;;;;;6.93;3.83;;;;;;;18.68;39.70;101930.69;5036285;28;20301;-62
2022/03/05 01:09:34;;;;;;;7.05;4.25;;;;;;;18.65;39.85;101925.59;5035950;28;20294;-62
2022/03/05 01:12:03;;;;;;;7.63;4.30;;;;;;;18.63;39.78;101924.88;5035548;28;20026;-62
2022/03/05 01:14:29;;;;;;;7.18;4.20;;;;;;;18.62;39.59;101926.66;5036124;28;20109;-63
2022/03/05 01:16:54;;;;;;;7.20;4.32;;;;;;;18.60;39.61;101928.56;5036341;28;20041;-62
2022/03/05 01:19:19;;;;;;;6.82;4.30;;;;;;;18.57;39.38;101922.63;5035076;28;20029;-62
2022/03/05 01:21:50;;;;;;;8.07;4.90;;;;;;;18.58;39.76;101924.31;5036003;28;20025;-62
2022/03/05 01:24:17;;;;;;;6.78;4.43;;;;;;;18.56;39.55;101924.41;5036227;28;20274;-62
2022/03/05 01:26:42;;;;;;;7.30;4.65;;;;;;;18.55;39.61;101927.16;5035095;28;20021;-62
2022/03/05 01:29:13;;;;;;;7.13;4.80;;;;;;;18.52;39.50;101922.94;5036041;28;20079;-62
2022/03/05 01:31:39;;;;;;;7.22;4.97;;;;;;;18.49;39.45;101931.06;5034652;28;20061;-62
2022/03/05 01:34:04;;;;;;;7.95;4.82;;;;;;;18.48;39.91;101919.66;5035916;28;20065;-62
2022/03/05 01:36:29;;;;;;;7.13;4.38;;;;;;;18.48;39.40;101921.44;5035512;28;20392;-62
2022/03/05 01:38:54;;;;;;;7.68;5.10;;;;;;;18.46;39.67;101923.34;5035108;28;20057;-62
2022/03/05 01:41:20;;;;;;;7.73;4.93;;;;;;;18.45;39.26;101925.13;5035671;28;20112;-62
2022/03/05 01:43:50;;;;;;;8.80;5.28;;;;;;;18.45;39.67;101917.22;5035746;28;20275;-62
2022/03/05 01:46:26;;;;;;;7.63;4.88;;;;;;;18.44;40.15;101925.25;5034937;28;20021;-62
2022/03/05 01:48:52;;;;;;;8.00;5.22;;;;;;;18.46;40.45;101925.97;5035541;28;20132;-62
2022/03/05 01:51:17;;;;;;;8.33;5.57;;;;;;;18.49;40.36;101926.63;5035701;28;20113;-62
2022/03/05 01:53:52;;;;;;;8.30;5.03;;;;;;;18.53;40.32;101921.97;5034627;28;20301;-62
2022/03/05 01:56:18;;;;;;;8.77;5.20;;;;;;;18.58;40.17;101921.66;5035556;28;20032;-62
2022/03/05 01:58:43;;;;;;;8.35;5.65;;;;;;;18.59;40.57;101918.09;5035028;28;20021;-62
2022/03/05 02:01:08;;;;;;;7.78;4.80;;;;;;;18.58;40.45;101917.25;5034622;28;20040;-62
2022/03/05 02:03:36;;;;;;;8.50;5.40;;;;;;;18.58;40.51;101924.31;5034964;28;20036;-62
2022/03/05 02:06:01;;;;;;;9.10;5.80;;;;;;;18.56;40.03;101920.94;5035259;28;20104;-62
2022/03/05 02:08:26;;;;;;;8.20;5.50;;;;;;;18.53;40.28;101923.78;5034367;28;20029;-62
2022/03/05 02:10:52;;;;;;;9.57;5.03;;;;;;;18.47;40.34;101917.97;5034135;28;20444;-62
2022/03/05 02:13:17;;;;;;;7.97;5.03;;;;;;;18.46;40.29;101918.88;5034948;28;20622;-62
2022/03/05 02:15:42;;;;;;;7.95;5.35;;;;;;;18.45;40.03;101921.63;5033838;28;20267;-62
2022/03/05 02:18:07;;;;;;;9.30;6.20;;;;;;;18.44;39.81;101919.97;5034944;28;20052;-62
2022/03/05 02:20:33;;;;;;;8.55;5.55;;;;;;;18.40;39.76;101918.44;5034645;28;20328;-62
2022/03/05 02:22:58;;;;;;;9.90;6.03;;;;;;;18.38;39.67;101909.81;5034365;28;20025;-62
2022/03/05 02:25:23;;;;;;;8.93;5.63;;;;;;;18.36;39.83;101917.81;5034773;28;20758;-62
2022/03/05 02:27:48;;;;;;;8.75;6.03;;;;;;;18.36;39.53;101911.66;5034969;28;20600;-62
2022/03/05 02:30:14;;;;;;;9.00;6.07;;;;;;;18.33;39.55;101904.81;5034236;28;20029;-62
2022/03/05 02:32:39;;;;;;;8.38;5.70;;;;;;;18.31;39.52;101902.28;5034441;28;20348;-62
2022/03/05 02:35:05;;;;;;;8.18;5.55;;;;;;;18.29;39.31;101898.03;5033936;28;20437;-62
2022/03/05 02:37:30;;;;;;;9.93;6.20;;;;;;;18.30;39.64;101902.38;5034622;28;20025;-63
2022/03/05 02:39:55;;;;;;;10.10;6.22;;;;;;;18.28;39.94;101904.28;5034971;28;20026;-62
2022/03/05 02:42:20;;;;;;;8.73;5.82;;;;;;;18.34;39.96;101901.25;5033681;28;20492;-62
2022/03/05 02:44:46;;;;;;;8.83;5.93;;;;;;;18.39;39.81;101895.63;5034610;28;20048;-62
2022/03/05 02:47:11;;;;;;;9.48;6.63;;;;;;;18.45;39.81;101904.03;5034455;28;20365;-63
2022/03/05 02:49:37;;;;;;;9.48;6.68;;;;;;;18.50;39.75;101909.00;5033628;28;20029;-62
2022/03/05 02:52:03;;;;;;;8.23;5.90;;;;;;;18.54;39.72;101912.28;5034502;28;20492;-62
2022/03/05 02:54:29;;;;;;;9.15;5.88;;;;;;;18.54;39.62;101920.19;5034075;28;20109;-62
2022/03/05 02:56:54;;;;;;;8.90;5.93;;;;;;;18.51;39.31;101905.41;5033645;28;20037;-62
2022/03/05 02:59:19;;;;;;;8.88;6.05;;;;;;;18.52;39.58;101908.88;5033991;28;20488;-62
2022/03/05 03:01:46;;;;;;;9.20;6.00;;;;;;;18.47;39.62;101907.41;5034234;28;20390;-62
2022/03/05 03:04:11;;;;;;;8.95;6.22;;;;;;;18.46;39.58;101908.34;5033574;28;20337;-62
2022/03/05 03:06:36;;;;;;;8.95;6.25;;;;;;;18.45;39.52;101908.44;5033763;28;20029;-63
2022/03/05 03:09:01;;;;;;;8.85;6.00;;;;;;;18.41;39.36;101907.78;5033988;28;20053;-63
2022/03/05 03:11:27;;;;;;;8.73;5.63;;;;;;;18.38;39.40;101909.81;5032895;28;20037;-63
2022/03/05 03:13:52;;;;;;;9.82;6.13;;;;;;;18.34;39.63;101917.09;5033958;28;20057;-62
2022/03/05 03:16:17;;;;;;;9.25;6.20;;;;;;;18.41;39.08;101910.44;5033842;28;20120;-62
2022/03/05 03:18:43;;;;;;;9.90;6.45;;;;;;;18.50;39.37;101906.38;5033037;28;20024;-62
2022/03/05 03:21:09;;;;;;;9.43;6.57;;;;;;;18.56;38.89;101905.94;5033944;28;20021;-63
2022/03/05 03:23:34;;;;;;;10.48;6.55;;;;;;;18.59;38.92;101892.53;5033563;28;20053;-62
2022/03/05 03:26:03;;;;;;;9.45;6.10;;;;;;;18.64;38.51;101895.72;5033247;28;20022;-62
2022/03/05 03:28:28;;;;;;;9.45;6.50;;;;;;;18.65;38.69;101892.13;5033519;28;20017;-62
2022/03/05 03:30:53;;;;;;;9.60;6.57;;;;;;;18.63;38.82;101894.03;5033581;28;20026;-62
2022/03/05 03:33:18;;;;;;;10.20;6.17;;;;;;;18.62;38.75;101897.59;5032976;28;20025;-62
2022/03/05 03:35:44;;;;;;;10.10;6.60;;;;;;;18.61;38.65;101895.06;5033695;28;20274;-62
2022/03/05 03:38:09;;;;;;;8.68;6.15;;;;;;;18.58;38.63;101892.63;5033432;28;20030;-61
2022/03/05 03:40:34;;;;;;;8.18;6.03;;;;;;;18.59;38.36;101891.69;5032626;28;20053;-62
2022/03/05 03:43:00;;;;;;;9.40;6.05;;;;;;;18.63;38.61;101896.66;5033581;28;20049;-62
2022/03/05 03:45:28;;;;;;;9.00;6.05;;;;;;;18.71;38.63;101893.50;5032292;28;20100;-61
2022/03/05 03:47:54;;;;;;;10.77;6.55;;;;;;;18.76;37.94;101890.56;5033384;28;20024;-62
2022/03/05 03:50:24;;;;;;;8.38;5.80;;;;;;;18.77;38.14;101901.03;5033233;28;20378;-63
2022/03/05 03:52:50;;;;;;;8.45;6.15;;;;;;;18.80;38.00;101900.81;5032512;28;20404;-62
2022/03/05 03:55:20;;;;;;;8.80;6.30;;;;;;;18.81;38.02;101899.00;5033326;28;20056;-62
2022/03/05 03:57:45;;;;;;;9.68;6.22;;;;;;;18.81;38.06;101901.66;5033265;28;20022;-62
2022/03/05 04:00:18;;;;;;;9.73;6.97;;;;;;;18.78;38.00;101904.50;5032372;28;20026;-62
2022/03/05 04:02:43;;;;;;;9.15;6.22;;;;;;;18.75;38.10;101899.44;5032973;28;20100;-62
2022/03/05 04:05:09;;;;;;;8.50;5.82;;;;;;;18.68;37.99;101886.63;5033202;28;20505;-62
2022/03/05 04:10:19;;;;;;;10.10;6.50;;;;;;;18.58;38.25;101885.56;5032960;28;20080;-62
2022/03/05 04:12:44;;;;;;;8.85;5.85;;;;;;;18.57;37.96;101886.50;5032828;28;20485;-61
2022/03/05 04:15:10;;;;;;;9.00;6.30;;;;;;;18.59;38.11;101887.25;5032346;28;20496;-62
2022/03/05 04:17:38;;;;;;;8.57;5.72;;;;;;;18.66;38.09;101893.81;5032841;28;20068;-61
2022/03/05 04:20:05;;;;;;;9.88;6.40;;;;;;;18.74;37.57;101898.59;5032998;28;20029;-61
2022/03/05 04:22:33;;;;;;;8.85;6.47;;;;;;;18.79;37.80;101900.94;5031709;28;20074;-61
2022/03/05 04:24:59;;;;;;;9.18;6.20;;;;;;;18.80;37.64;101898.19;5032755;28;20056;-61
2022/03/05 04:27:24;;;;;;;8.57;5.80;;;;;;;18.85;37.49;101905.81;5032664;28;20461;-61
2022/03/05 04:29:52;;;;;;;9.75;6.80;;;;;;;18.85;37.70;101896.09;5032221;28;20460;-61
2022/03/05 04:32:18;;;;;;;8.82;6.00;;;;;;;18.84;37.79;101902.31;5032668;28;20528;-61
2022/03/05 04:34:43;;;;;;;9.65;6.32;;;;;;;18.81;37.66;101896.38;5031336;28;20156;-61
2022/03/05 04:37:08;;;;;;;9.15;6.15;;;;;;;18.78;37.67;101904.50;5032865;28;20029;-61
2022/03/05 04:39:33;;;;;;;9.60;6.25;;;;;;;18.74;37.62;101906.50;5032314;28;20491;-61
2022/03/05 04:41:59;;;;;;;8.52;6.00;;;;;;;18.70;37.66;101914.75;5031912;28;20127;-61
2022/03/05 04:44:24;;;;;;;9.27;6.75;;;;;;;18.68;38.06;101909.56;5032560;28;20084;-62
2022/03/05 04:46:50;;;;;;;9.10;6.47;;;;;;;18.72;37.43;101916.31;5032811;28;20379;-62
2022/03/05 04:49:15;;;;;;;9.68;6.50;;;;;;;18.78;37.59;101913.25;5031854;28;20028;-62
2022/03/05 04:51:40;;;;;;;9.43;6.13;;;;;;;18.82;37.45;101906.00;5032231;28;20029;-62
2022/03/05 04:54:06;;;;;;;8.25;6.07;;;;;;;18.85;37.54;101911.09;5032536;28;20021;-62
2022/03/05 04:56:31;;;;;;;8.35;6.20;;;;;;;18.88;37.30;101916.16;5031294;28;20036;-62
2022/03/05 04:58:56;;;;;;;9.65;5.90;;;;;;;18.88;37.22;101917.97;5032717;28;20108;-62
2022/03/05 05:01:22;;;;;;;8.75;6.35;;;;;;;18.87;37.34;101918.91;5032363;28;20021;-62
2022/03/05 05:03:47;;;;;;;9.45;6.30;;;;;;;18.84;37.04;101917.34;5031871;28;20116;-62
2022/03/05 05:06:13;;;;;;;10.02;6.45;;;;;;;18.80;37.58;101910.53;5032321;28;20027;-62
2022/03/05 05:08:39;;;;;;;9.50;6.25;;;;;;;18.77;37.72;101916.00;5032240;28;20021;-62
2022/03/05 05:11:04;;;;;;;9.45;6.28;;;;;;;18.75;37.83;101915.28;5031554;28;20037;-62
2022/03/05 05:13:30;;;;;;;9.18;5.88;;;;;;;18.77;37.46;101919.50;5032191;28;20060;-62
2022/03/05 05:15:56;;;;;;;9.45;6.07;;;;;;;18.80;37.05;101916.66;5032592;28;20057;-63
2022/03/05 05:18:21;;;;;;;9.68;6.50;;;;;;;18.85;37.09;101911.09;5031305;28;20377;-62
2022/03/05 05:20:47;;;;;;;11.02;6.28;;;;;;;18.91;37.22;101920.41;5032309;28;20025;-62
2022/03/05 05:23:12;;;;;;;8.90;6.25;;;;;;;18.91;37.27;101920.41;5032344;28;20022;-62
2022/03/05 05:25:37;;;;;;;9.33;6.50;;;;;;;18.93;37.58;101915.84;5031131;28;20028;-62
2022/03/05 05:28:03;;;;;;;10.07;6.70;;;;;;;18.91;37.38;101920.41;5032577;28;20278;-62
2022/03/05 05:30:31;;;;;;;9.60;6.03;;;;;;;18.89;37.29;101920.50;5032018;28;20267;-61
2022/03/05 05:32:57;;;;;;;8.98;6.07;;;;;;;18.88;37.37;101928.53;5031645;28;20029;-61
2022/03/05 05:35:22;;;;;;;8.47;6.00;;;;;;;18.84;37.47;101930.53;5031960;28;20033;-62
2022/03/05 05:37:47;;;;;;;10.00;6.85;;;;;;;18.79;37.26;101929.97;5031681;28;20025;-62
2022/03/05 05:40:15;;;;;;;8.98;6.07;;;;;;;18.79;37.20;101936.09;5031704;28;20025;-62
2022/03/05 05:42:42;;;;;;;9.45;6.03;;;;;;;18.83;37.37;101936.72;5032009;28;20029;-62
2022/03/05 05:45:09;;;;;;;9.77;6.20;;;;;;;18.89;37.33;101940.78;5031600;28;20029;-62
2022/03/05 05:47:34;;;;;;;9.38;6.50;;;;;;;18.91;37.11;101946.81;5034186;28;20026;-62
2022/03/05 05:49:59;;;;;;;9.77;6.20;;;;;;;18.91;37.08;101941.53;5035855;28;20108;-62
2022/03/05 05:52:25;;;;;;;9.90;7.00;;;;;;;18.91;36.67;101950.28;5034547;28;20052;-62
2022/03/05 05:54:50;;;;;;;9.80;6.63;;;;;;;18.90;37.22;101947.75;5035446;28;20267;-62
2022/03/05 05:57:15;;;;;;;8.75;5.95;;;;;;;18.87;37.25;101948.81;5035661;28;20021;-62
2022/03/05 05:59:40;;;;;;;9.13;6.20;;;;;;;18.87;36.80;101948.81;5034536;28;20457;-62
2022/03/05 06:02:06;;;;;;;8.90;6.25;;;;;;;18.88;37.04;101949.66;5035590;28;20267;-61
2022/03/05 06:04:31;;;;;;;10.15;6.47;;;;;;;18.94;37.13;101949.25;5035131;28;20068;-61
2022/03/05 06:06:57;;;;;;;10.18;6.65;;;;;;;19.01;36.89;101945.25;5034544;28;20017;-60
2022/03/05 06:09:23;;;;;;;9.50;6.82;;;;;;;19.07;37.00;101941.34;5034603;28;20056;-63
2022/03/05 06:11:48;;;;;;;10.50;6.32;;;;;;;19.14;37.25;101942.63;5035228;28;20033;-62
2022/03/05 06:14:13;;;;;;;9.85;6.40;;;;;;;19.20;37.45;101942.19;5034640;28;20028;-62
2022/03/05 06:16:39;;;;;;;10.05;5.82;;;;;;;19.25;37.33;101941.88;5035008;28;20481;-62
2022/03/05 06:19:05;;;;;;;9.15;6.32;;;;;;;19.29;37.22;101930.97;5035197;28;20389;-63
2022/03/05 06:21:30;;;;;;;9.85;6.57;;;;;;;19.34;37.32;101950.03;5033997;28;20022;-62
2022/03/05 06:23:55;;;;;;;9.93;6.25;;;;;;;19.38;37.20;101945.38;5034961;28;20025;-62
2022/03/05 06:26:21;;;;;;;9.35;6.28;;;;;;;19.39;37.03;101945.28;5034666;28;20045;-62
2022/03/05 06:28:46;;;;;;;8.85;6.15;;;;;;;19.42;36.96;101941.53;5034503;28;20024;-63
2022/03/05 06:31:11;;;;;;;10.43;6.45;;;;;;;19.45;37.01;101948.44;5034912;28;20067;-62
2022/03/05 06:33:37;;;;;;;8.57;6.20;;;;;;;19.46;36.88;101950.97;5034684;28;20028;-62
2022/03/05 06:36:03;;;;;;;10.00;6.57;;;;;;;19.49;36.80;101952.56;5034083;28;20025;-62
2022/03/05 06:38:28;;;;;;;10.68;7.20;;;;;;;19.49;36.83;101952.56;5034501;28;20057;-62
2022/03/05 06:40:54;;;;;;;9.70;6.30;;;;;;;19.49;37.06;101950.75;5035019;28;20032;-62
2022/03/05 06:43:19;;;;;;;9.77;6.53;;;;;;;19.55;37.33;101952.97;5034025;28;20108;-63
2022/03/05 06:45:50;;;;;;;8.90;6.05;;;;;;;19.58;38.10;101955.41;5034827;28;20483;-63
2022/03/05 06:48:15;;;;;;;8.73;5.47;;;;;;;19.64;37.71;101958.56;5033860;28;20469;-62
2022/03/05 06:50:40;;;;;;;8.07;5.82;;;;;;;19.69;37.81;101957.31;5034325;28;20116;-62
2022/03/05 06:53:06;;;;;;;8.30;5.47;;;;;;;19.73;38.09;101957.94;5034527;28;20022;-62
2022/03/05 06:55:31;;;;;;;9.95;6.05;;;;;;;19.74;37.52;101965.75;5033493;28;20033;-62
2022/03/05 06:57:57;;;;;;;8.85;5.93;;;;;;;19.77;37.46;101958.56;5034054;28;20025;-62
2022/03/05 07:00:22;;;;;;;8.95;5.93;;;;;;;19.78;37.59;101962.94;5034429;28;20025;-62
2022/03/05 07:02:48;;;;;;;8.80;5.60;;;;;;;19.78;37.48;101965.56;5033559;28;20038;-62
2022/03/05 07:05:14;;;;;;;9.57;5.63;;;;;;;19.79;37.34;101972.53;5034373;28;20022;-62
2022/03/05 07:07:39;;;;;;;9.02;5.70;;;;;;;19.80;37.43;101977.72;5033821;28;20029;-62
2022/03/05 07:10:06;;;;;;;8.95;5.72;;;;;;;19.80;37.33;101977.72;5033436;28;20045;-62
2022/03/05 07:12:31;;;;;;;10.10;6.43;;;;;;;19.80;37.23;101977.72;5033671;28;20064;-62
2022/03/05 07:14:58;;;;;;;10.00;6.47;;;;;;;19.82;37.15;101974.97;5034023;28;20055;-62
2022/03/05 07:17:23;;;;;;;8.90;5.88;;;;;;;19.82;37.37;101981.13;5032941;28;20033;-61
2022/03/05 07:19:54;;;;;;;9.00;6.20;;;;;;;19.82;37.28;101986.41;5034241;28;20033;-61
2022/03/05 07:22:19;;;;;;;9.63;6.53;;;;;;;19.83;37.38;101988.06;5033738;28;20036;-61
2022/03/05 07:24:44;;;;;;;9.20;6.40;;;;;;;19.81;37.19;101981.22;5033244;28;20029;-62
2022/03/05 07:27:09;;;;;;;8.67;6.43;;;;;;;19.84;36.33;101991.59;5034047;28;20357;-61
2022/03/05 07:29:35;;;;;;;13.70;7.43;;;;;;;19.79;36.12;101989.28;5033326;28;20262;-62
2022/03/05 07:32:03;;;;;;;8.93;6.30;;;;;;;19.84;37.96;101989.78;5033109;28;20286;-63
2022/03/05 07:34:28;;;;;;;8.40;5.43;;;;;;;19.89;38.17;101984.16;5033391;28;20030;-64
2022/03/05 07:36:54;;;;;;;9.02;6.20;;;;;;;19.92;38.48;101983.97;5033805;28;20025;-64
2022/03/05 07:39:19;;;;;;;9.37;5.70;;;;;;;19.92;38.55;101990.09;5032895;28;20056;-64
2022/03/05 07:41:45;;;;;;;8.65;5.80;;;;;;;19.95;38.37;101978.44;5033758;28;20049;-64
2022/03/05 07:44:10;;;;;;;8.70;6.00;;;;;;;20.03;38.54;101983.19;5033579;28;20032;-62
2022/03/05 07:46:38;;;;;;;7.57;5.20;;;;;;;20.06;36.21;101980.31;5032508;28;20055;-61
2022/03/05 07:49:05;;;;;;;10.88;7.22;;;;;;;20.05;36.98;101986.56;5033319;28;20275;-63
2022/03/05 07:51:31;;;;;;;11.55;6.40;;;;;;;20.10;37.98;101984.44;5032162;28;20029;-62
2022/03/05 07:53:57;;;;;;;7.93;6.10;;;;;;;20.10;38.36;101973.84;5033477;28;20017;-62
2022/03/05 07:56:22;;;;;;;9.02;5.55;;;;;;;20.14;38.30;101991.22;5033023;28;20104;-62
2022/03/05 07:58:47;;;;;;;8.63;5.77;;;;;;;20.14;38.66;101991.22;5032660;28;20025;-62
2022/03/05 08:01:12;;;;;;;8.65;5.68;;;;;;;20.13;37.97;101994.81;5033169;28;20812;-63
2022/03/05 08:03:38;;;;;;;10.65;5.88;;;;;;;20.13;38.04;102001.91;5032869;28;20033;-63
2022/03/05 08:06:03;;;;;;;8.18;5.30;;;;;;;20.15;38.04;102000.81;5032396;28;20029;-63
2022/03/05 08:08:28;;;;;;;8.68;5.40;;;;;;;20.08;38.63;102007.53;5032506;28;20036;-63
2022/03/05 08:10:54;;;;;;;8.85;5.63;;;;;;;20.06;39.01;102012.91;5032227;28;20095;-63
2022/03/05 08:13:19;;;;;;;7.80;5.65;;;;;;;20.03;38.72;102012.31;5032050;28;20100;-63
2022/03/05 08:15:45;;;;;;;7.93;5.38;;;;;;;20.03;39.22;102012.31;5032885;28;20017;-64
2022/03/05 08:18:10;;;;;;;8.88;5.70;;;;;;;20.04;38.88;102016.63;5032808;28;20024;-63
2022/03/05 08:20:35;;;;;;;8.73;5.40;;;;;;;20.04;38.83;102021.91;5031690;28;20076;-63
2022/03/05 08:23:01;;;;;;;7.68;5.13;;;;;;;20.07;39.07;102019.88;5033037;28;20280;-64
2022/03/05 08:25:27;;;;;;;9.25;5.78;;;;;;;20.11;39.11;102021.38;5032823;28;20465;-63
2022/03/05 08:27:53;;;;;;;9.13;5.65;;;;;;;20.17;39.14;102025.41;5032095;28;20547;-63
2022/03/05 08:30:20;;;;;;;8.75;5.45;;;;;;;20.22;39.03;102022.38;5032997;28;20025;-64
2022/03/05 08:32:48;;;;;;;11.05;6.00;;;;;;;20.28;38.73;102027.25;5032747;28;20025;-64
2022/03/05 08:35:14;;;;;;;8.57;5.45;;;;;;;20.29;38.88;102029.78;5031920;28;20025;-64
2022/03/05 08:37:40;;;;;;;8.43;5.75;;;;;;;20.31;39.18;102027.03;5032589;28;20025;-64
2022/03/05 08:40:10;;;;;;;7.97;5.68;;;;;;;20.35;39.07;102028.50;5032789;28;20025;-64
2022/03/05 08:42:35;;;;;;;8.55;5.68;;;;;;;20.35;39.35;102027.69;5031757;28;20013;-64
2022/03/05 08:45:02;;;;;;;8.93;6.03;;;;;;;20.37;39.25;102023.09;5032855;28;20021;-67
2022/03/05 08:47:28;;;;;;;8.35;5.70;;;;;;;20.41;39.08;102032.50;5032357;28;20026;-65
2022/03/05 08:49:53;;;;;;;10.20;6.45;;;;;;;20.41;37.63;102027.22;5031823;28;20021;-65
2022/03/05 08:52:19;;;;;;;10.32;7.03;;;;;;;20.36;38.20;102029.34;5032619;28;20046;-65
2022/03/05 08:54:44;;;;;;;9.30;5.82;;;;;;;20.33;39.13;102026.91;5032055;28;20056;-65
2022/03/05 08:57:11;;;;;;;8.82;5.82;;;;;;;20.28;38.70;102027.25;5032543;28;20040;-65
2022/03/05 08:59:37;;;;;;;9.07;5.32;;;;;;;20.31;39.08;102021.72;5032316;28;20030;-65
2022/03/05 09:02:02;;;;;;;9.18;5.72;;;;;;;20.41;38.69;102016.63;5031629;28;20112;-65
2022/03/05 09:04:30;;;;;;;8.57;5.82;;;;;;;20.49;38.71;102024.88;5032411;28;20104;-66
2022/03/05 09:06:56;;;;;;;10.13;5.72;;;;;;;20.53;39.02;102022.84;5032489;28;20030;-64
2022/03/05 09:09:21;;;;;;;8.30;5.22;;;;;;;20.57;39.70;102024.28;5031092;28;20128;-64
2022/03/05 09:11:49;;;;;;;9.45;6.22;;;;;;;20.58;39.33;102033.94;5032386;28;20071;-65
2022/03/05 09:14:15;;;;;;;8.70;5.70;;;;;;;20.60;39.54;102030.22;5032399;28;20026;-64
2022/03/05 09:16:40;;;;;;;8.50;5.20;;;;;;;20.62;39.10;102030.13;5031307;28;20033;-64
2022/03/05 09:19:06;;;;;;;8.63;5.82;;;;;;;20.62;38.99;102024.81;5032290;28;20262;-64
2022/03/05 09:21:33;;;;;;;8.05;5.55;;;;;;;20.59;38.80;102020.59;5034333;28;20539;-65
2022/03/05 09:24:01;;;;;;;8.88;5.85;;;;;;;20.59;38.69;102019.75;5035503;28;20029;-64
2022/03/05 09:26:26;;;;;;;8.70;6.10;;;;;;;20.60;39.01;102008.16;5035863;28;20055;-64
2022/03/05 09:28:52;;;;;;;9.30;5.88;;;;;;;20.60;39.17;102016.97;5035995;28;20045;-63
2022/03/05 09:31:23;;;;;;;9.55;6.28;;;;;;;20.60;39.26;102016.13;5034907;28;20061;-64
2022/03/05 09:33:48;;;;;;;9.13;5.53;;;;;;;20.59;39.22;102012.63;5035894;28;20112;-64
2022/03/05 09:36:13;;;;;;;9.10;5.47;;;;;;;20.60;39.13;102013.47;5036121;28;20113;-64
2022/03/05 09:38:39;;;;;;;7.97;5.30;;;;;;;20.60;39.20;102011.69;5034839;28;20121;-64
2022/03/05 09:41:06;;;;;;;9.10;5.55;;;;;;;20.59;39.06;102011.81;5035841;28;20109;-63
2022/03/05 09:43:32;;;;;;;8.35;5.80;;;;;;;20.57;38.09;102006.63;5035530;28;20025;-65
2022/03/05 09:45:58;;;;;;;11.10;5.80;;;;;;;20.60;38.77;102008.16;5034898;28;20021;-65
2022/03/05 09:48:24;;;;;;;8.77;5.45;;;;;;;20.61;39.00;102010.72;5035539;28;20029;-66
2022/03/05 09:50:49;;;;;;;8.35;6.13;;;;;;;20.60;39.01;102011.69;5035581;28;20074;-62
2022/03/05 09:53:16;;;;;;;9.00;5.80;;;;;;;20.60;39.00;102022.28;5034971;28;20025;-62
2022/03/05 09:55:41;;;;;;;9.43;6.43;;;;;;;20.60;37.12;102016.97;5035276;28;20275;-64
2022/03/05 09:58:07;;;;;;;9.52;6.78;;;;;;;20.55;37.68;102010.31;5034735;28;20063;-64
2022/03/05 10:00:32;;;;;;;10.60;7.22;;;;;;;20.54;37.60;102019.25;5035219;28;20465;-66
2022/03/05 10:02:59;;;;;;;11.30;7.10;;;;;;;20.48;37.18;102012.56;5035272;28;20075;-65
2022/03/05 10:05:27;;;;;;;9.85;6.38;;;;;;;20.51;38.23;102014.16;5034424;28;20282;-63
2022/03/05 10:07:59;;;;;;;9.75;5.80;;;;;;;20.54;37.95;102020.06;5035413;28;20052;-65
2022/03/05 10:10:24;;;;;;;8.98;5.85;;;;;;;20.54;38.05;102016.59;5034778;28;20072;-65
2022/03/05 10:12:49;;;;;;;9.30;6.10;;;;;;;20.56;38.44;102015.50;5034403;28;20119;-66
2022/03/05 10:15:17;;;;;;;10.23;6.90;;;;;;;20.56;36.82;102012.03;5035076;28;20021;-66
2022/03/05 10:17:50;;;;;;;10.75;6.75;;;;;;;20.54;37.95;102014.78;5035068;28;20279;-66
2022/03/05 10:20:15;;;;;;;8.75;6.15;;;;;;;20.56;38.25;102018.16;5034256;28;20388;-65
2022/03/05 10:23:00;;;;;;;9.75;5.95;;;;;;;20.58;38.68;102010.09;5034880;28;20031;-64
2022/03/05 10:25:34;;;;;;;9.98;6.50;;;;;;;20.59;38.32;102007.34;5034660;28;20108;-64
2022/03/05 10:28:02;;;;;;;11.20;6.70;;;;;;;20.62;38.25;102008.94;5034473;28;20120;-63
2022/03/05 10:30:29;;;;;;;11.48;6.65;;;;;;;20.63;38.42;102016.75;5034681;28;20425;-64
2022/03/05 10:32:54;;;;;;;10.40;6.63;;;;;;;20.61;38.28;102005.41;5034156;28;20026;-63
2022/03/05 10:35:19;;;;;;;8.87;6.43;;;;;;;20.65;38.83;102014.03;5033825;28;20083;-64
2022/03/05 10:37:51;;;;;;;9.45;6.07;;;;;;;20.65;38.38;102011.38;5034835;28;20266;-67
2022/03/05 10:40:34;;;;;;;11.38;7.03;;;;;;;20.65;38.46;102006.91;5033930;28;20029;-64
2022/03/05 10:43:02;;;;;;;10.07;7.35;;;;;;;20.63;38.57;102013.25;5034638;28;20033;-65
2022/03/05 10:45:29;;;;;;;13.35;8.13;;;;;;;20.59;37.69;102006.50;5034038;28;20025;-64
2022/03/05 10:47:56;;;;;;;12.00;8.57;;;;;;;20.59;38.67;102009.16;5033676;28;20033;-66
2022/03/05 10:50:30;;;;;;;10.48;7.30;;;;;;;20.58;38.83;102010.09;5034064;28;20049;-65
2022/03/05 10:53:00;;;;;;;11.02;7.35;;;;;;;20.58;39.16;102010.94;5034211;28;20469;-65
2022/03/05 10:55:27;;;;;;;10.82;7.18;;;;;;;20.58;39.73;102012.75;5033530;28;20025;-66
2022/03/05 10:58:06;;;;;;;12.38;8.48;;;;;;;20.58;39.91;102015.41;5034269;28;20053;-65
2022/03/05 11:00:32;;;;;;;10.82;8.10;;;;;;;20.56;40.35;102009.38;5033944;28;20099;-65
2022/03/05 11:03:00;;;;;;;10.80;7.78;;;;;;;20.56;40.19;102012.84;5033285;28;20029;-64
2022/03/05 11:05:26;;;;;;;11.95;8.25;;;;;;;20.57;40.28;102011.91;5034051;28;20080;-64
2022/03/05 11:07:53;;;;;;;10.75;7.32;;;;;;;20.56;40.64;102014.66;5034208;28;20029;-64
2022/03/05 11:10:19;;;;;;;11.13;7.78;;;;;;;20.54;40.38;102017.44;5033089;28;20049;-64
2022/03/05 11:12:51;;;;;;;11.07;8.05;;;;;;;20.54;40.49;102014.78;5033885;28;20053;-64
2022/03/05 11:15:18;;;;;;;12.85;8.43;;;;;;;20.53;40.98;102014.91;5034081;28;20121;-64
2022/03/05 11:17:46;;;;;;;12.70;8.55;;;;;;;20.52;40.50;102010.53;5032832;28;20021;-66
2022/03/05 11:20:13;;;;;;;11.90;8.35;;;;;;;20.53;40.38;102015.72;5034019;28;20105;-66
2022/03/05 11:22:41;;;;;;;11.48;8.20;;;;;;;20.55;40.24;102011.16;5032882;28;20109;-65